Time,TemperatureF,DewpointF,PressureIn,WindDirection,WindDirectionDegrees,WindSpeedMPH,WindSpeedGustMPH,Humidity,HourlyPrecipIn,Conditions,Clouds,dailyrainin,SoftwareType,DateUTC
2013-04-08 00:02:00,33.0,26.0,-100.00,SW,215,4.0,6.0,74,-99.99,,,-99.99,,2013-04-08 06:02:00,
2013-04-08 00:12:00,33.0,25.0,-100.00,SW,220,6.0,17.0,70,-99.99,,,-99.99,,2013-04-08 06:12:00,
2013-04-08 00:22:00,35.0,23.0,-100.00,SW,230,6.0,14.0,59,-99.99,,,-99.99,,2013-04-08 06:22:00,
2013-04-08 00:32:00,36.0,22.0,-100.00,SW,225,7.0,16.0,54,-99.99,,,-99.99,,2013-04-08 06:32:00,
2013-04-08 00:42:00,37.0,21.0,-100.00,SSW,210,6.0,14.0,52,-99.99,,,-99.99,,2013-04-08 06:42:00,
2013-04-08 00:52:00,37.0,20.0,-100.00,SW,230,7.0,12.0,51,-99.99,,,-99.99,,2013-04-08 06:52:00,
2013-04-08 01:02:00,36.0,20.0,-100.00,SW,230,7.0,14.0,51,-99.99,,,-99.99,,2013-04-08 07:02:00,
2013-04-08 01:12:00,37.0,20.0,-100.00,SW,220,7.0,15.0,50,-99.99,,,-99.99,,2013-04-08 07:12:00,
2013-04-08 01:22:00,37.0,20.0,-100.00,SW,220,7.0,15.0,50,-99.99,,,-99.99,,2013-04-08 07:22:00,
2013-04-08 01:32:00,37.0,20.0,-100.00,SW,220,7.0,15.0,50,-99.99,,,-99.99,,2013-04-08 07:32:00,
2013-04-08 01:42:00,36.0,20.0,-100.00,WSW,245,6.0,11.0,52,-99.99,,,-99.99,,2013-04-08 07:42:00,
2013-04-08 01:52:00,36.0,20.0,-100.00,WSW,245,6.0,11.0,52,-99.99,,,-99.99,,2013-04-08 07:52:00,
2013-04-08 02:02:00,35.0,19.0,-100.00,SW,215,7.0,13.0,52,-99.99,,,-99.99,,2013-04-08 08:02:00,
2013-04-08 02:12:00,35.0,19.0,-100.00,SW,215,7.0,13.0,52,-99.99,,,-99.99,,2013-04-08 08:12:00,
2013-04-08 02:22:00,35.0,19.0,-100.00,SW,215,7.0,13.0,52,-99.99,,,-99.99,,2013-04-08 08:22:00,
2013-04-08 02:32:00,35.0,19.0,-100.00,SW,230,2.0,6.0,52,-99.99,,,-99.99,,2013-04-08 08:32:00,
2013-04-08 02:42:00,33.0,19.0,-100.00,SW,235,2.0,6.0,55,-99.99,,,-99.99,,2013-04-08 08:42:00,
2013-04-08 02:52:00,32.0,19.0,-100.00,SE,140,1.0,3.0,56,-99.99,,,-99.99,,2013-04-08 08:52:00,
2013-04-08 03:02:00,31.0,19.0,-100.00,South,180,2.0,5.0,59,-99.99,,,-99.99,,2013-04-08 09:02:00,
2013-04-08 03:12:00,31.0,19.0,-100.00,SSW,195,2.0,4.0,60,-99.99,,,-99.99,,2013-04-08 09:12:00,
2013-04-08 03:22:00,31.0,20.0,-100.00,SSW,210,2.0,4.0,61,-99.99,,,-99.99,,2013-04-08 09:22:00,
2013-04-08 03:33:00,31.0,20.0,-100.00,SSW,205,3.0,4.0,62,-99.99,,,-99.99,,2013-04-08 09:33:00,
2013-04-08 03:42:00,31.0,20.0,-100.00,SSW,210,4.0,9.0,63,-99.99,,,-99.99,,2013-04-08 09:42:00,
2013-04-08 03:52:00,32.0,21.0,-100.00,SW,225,5.0,8.0,62,-99.99,,,-99.99,,2013-04-08 09:52:00,
2013-04-08 04:03:00,33.0,20.0,-100.00,WSW,240,6.0,9.0,58,-99.99,,,-99.99,,2013-04-08 10:03:00,
2013-04-08 04:13:00,33.0,20.0,-100.00,WSW,240,6.0,9.0,58,-99.99,,,-99.99,,2013-04-08 10:13:00,
2013-04-08 04:23:00,37.0,18.0,-100.00,SW,235,9.0,20.0,46,-99.99,,,-99.99,,2013-04-08 10:23:00,
2013-04-08 04:32:00,37.0,17.0,-100.00,SW,230,6.0,17.0,44,-99.99,,,-99.99,,2013-04-08 10:32:00,
2013-04-08 04:42:00,35.0,17.0,-100.00,ENE,65,2.0,6.0,47,-99.99,,,-99.99,,2013-04-08 10:42:00,
2013-04-08 04:52:00,34.0,18.0,-100.00,ENE,75,1.0,7.0,51,-99.99,,,-99.99,,2013-04-08 10:52:00,
2013-04-08 05:02:00,33.0,17.0,-100.00,SW,230,3.0,5.0,52,-99.99,,,-99.99,,2013-04-08 11:02:00,
2013-04-08 05:12:00,32.0,17.0,-100.00,East,80,2.0,4.0,54,-99.99,,,-99.99,,2013-04-08 11:12:00,
2013-04-08 05:22:00,32.0,18.0,-100.00,ESE,120,1.0,9.0,56,-99.99,,,-99.99,,2013-04-08 11:22:00,
2013-04-08 05:32:00,31.0,19.0,-100.00,SE,125,1.0,4.0,58,-99.99,,,-99.99,,2013-04-08 11:32:00,
2013-04-08 05:42:00,31.0,18.0,-100.00,SSW,195,1.0,4.0,58,-99.99,,,-99.99,,2013-04-08 11:42:00,
2013-04-08 05:52:00,30.0,18.0,-100.00,NNW,330,1.0,3.0,59,-99.99,,,-99.99,,2013-04-08 11:52:00,
2013-04-08 06:02:00,30.0,19.0,-100.00,ENE,75,2.0,4.0,60,-99.99,,,-99.99,,2013-04-08 12:02:00,
2013-04-08 06:12:00,30.0,19.0,-100.00,SSE,150,0.0,2.0,63,-99.99,,,-99.99,,2013-04-08 12:12:00,
2013-04-08 06:22:00,29.0,19.0,-100.00,South,175,0.0,2.0,65,-99.99,,,-99.99,,2013-04-08 12:22:00,
2013-04-08 06:32:00,28.0,18.0,-100.00,SSE,155,1.0,2.0,66,-99.99,,,-99.99,,2013-04-08 12:32:00,
2013-04-08 06:42:00,28.0,18.0,-100.00,SSE,155,1.0,2.0,66,-99.99,,,-99.99,,2013-04-08 12:42:00,
2013-04-08 06:52:00,28.0,19.0,-100.00,ESE,115,1.0,2.0,68,-99.99,,,-99.99,,2013-04-08 12:52:00,
2013-04-08 07:02:00,28.0,19.0,-100.00,SE,145,1.0,2.0,68,-99.99,,,-99.99,,2013-04-08 13:02:00,
2013-04-08 07:12:00,28.0,20.0,-100.00,SE,130,0.0,2.0,69,-99.99,,,-99.99,,2013-04-08 13:12:00,
2013-04-08 07:22:00,28.0,20.0,-100.00,SE,130,0.0,2.0,69,-99.99,,,-99.99,,2013-04-08 13:22:00,
2013-04-08 07:32:00,28.0,20.0,-100.00,SE,130,0.0,2.0,69,-99.99,,,-99.99,,2013-04-08 13:32:00,
2013-04-08 07:42:00,30.0,22.0,-100.00,SW,215,2.0,4.0,70,-99.99,,,-99.99,,2013-04-08 13:42:00,
2013-04-08 07:52:00,31.0,22.0,-100.00,SW,230,3.0,6.0,66,-99.99,,,-99.99,,2013-04-08 13:52:00,
2013-04-08 08:02:00,32.0,22.0,-100.00,WSW,240,3.0,6.0,65,-99.99,,,-99.99,,2013-04-08 14:02:00,
2013-04-08 08:12:00,33.0,22.0,-100.00,SW,215,0.0,3.0,65,-99.99,,,-99.99,,2013-04-08 14:12:00,
2013-04-08 08:22:00,33.0,23.0,-100.00,SW,230,0.0,2.0,65,-99.99,,,-99.99,,2013-04-08 14:22:00,
2013-04-08 08:32:00,34.0,24.0,-100.00,SSE,155,0.0,1.0,66,-99.99,,,-99.99,,2013-04-08 14:32:00,
2013-04-08 08:42:00,35.0,24.0,-100.00,ENE,70,3.0,4.0,62,-99.99,,,-99.99,,2013-04-08 14:42:00,
2013-04-08 08:52:00,36.0,23.0,-100.00,North,5,1.0,4.0,58,-99.99,,,-99.99,,2013-04-08 14:52:00,
2013-04-08 09:02:00,36.0,22.0,-100.00,NNE,20,2.0,4.0,57,-99.99,,,-99.99,,2013-04-08 15:02:00,
2013-04-08 09:12:00,36.0,22.0,-100.00,NNE,30,0.0,4.0,56,-99.99,,,-99.99,,2013-04-08 15:12:00,
2013-04-08 09:22:00,37.0,23.0,-100.00,ENE,65,2.0,6.0,55,-99.99,,,-99.99,,2013-04-08 15:22:00,
2013-04-08 09:30:00,40.0,23.0,-100.00,SW,225,2.0,5.0,48,-99.99,,,-99.99,,2013-04-08 15:30:00,
2013-04-08 09:33:00,40.0,23.0,-100.00,SSW,200,2.0,6.0,51,-99.99,,,-99.99,,2013-04-08 15:33:00,
2013-04-08 09:42:00,40.0,23.0,-100.00,SW,225,2.0,5.0,48,-99.99,,,-99.99,,2013-04-08 15:42:00,
2013-04-08 09:52:00,40.0,23.0,-100.00,SW,225,2.0,5.0,48,-99.99,,,-99.99,,2013-04-08 15:52:00,
2013-04-08 10:03:00,40.0,23.0,-100.00,SW,225,2.0,5.0,48,-99.99,,,-99.99,,2013-04-08 16:03:00,
2013-04-08 10:13:00,40.0,23.0,-100.00,SW,225,2.0,5.0,48,-99.99,,,-99.99,,2013-04-08 16:13:00,
2013-04-08 10:22:00,40.0,23.0,-100.00,SW,225,2.0,5.0,48,-99.99,,,-99.99,,2013-04-08 16:22:00,
2013-04-08 13:30:00,48.0,25.0,-100.00,South,185,6.0,18.0,39,-99.99,,,-99.99,,2013-04-08 19:30:00,
2013-04-08 13:43:00,48.0,25.0,-100.00,South,185,6.0,18.0,39,-99.99,,,-99.99,,2013-04-08 19:43:00,
2013-04-08 13:52:00,48.0,25.0,-100.00,South,185,6.0,18.0,39,-99.99,,,-99.99,,2013-04-08 19:52:00,
2013-04-08 14:02:00,48.0,25.0,-100.00,South,185,6.0,18.0,39,-99.99,,,-99.99,,2013-04-08 20:02:00,
2013-04-08 14:12:00,48.0,25.0,-100.00,South,185,6.0,18.0,39,-99.99,,,-99.99,,2013-04-08 20:12:00,
2013-04-08 14:22:00,48.0,25.0,-100.00,South,185,6.0,18.0,39,-99.99,,,-99.99,,2013-04-08 20:22:00,
2013-04-08 17:02:00,44.0,25.0,-100.00,WNW,300,3.0,6.0,46,-99.99,,,-99.99,,2013-04-08 23:02:00,
2013-04-08 17:12:00,45.0,25.0,-100.00,SSW,200,2.0,6.0,45,-99.99,,,-99.99,,2013-04-08 23:12:00,
2013-04-08 17:22:00,45.0,25.0,-100.00,SSW,200,2.0,6.0,45,-99.99,,,-99.99,,2013-04-08 23:22:00,
2013-04-08 17:32:00,45.0,25.0,-100.00,SSW,200,2.0,6.0,45,-99.99,,,-99.99,,2013-04-08 23:32:00,
2013-04-08 17:42:00,40.0,26.0,-100.00,ENE,65,6.0,13.0,56,-99.99,,,-99.99,,2013-04-08 23:42:00,
2013-04-08 17:52:00,39.0,27.0,-100.00,ENE,60,3.0,11.0,62,-99.99,,,-99.99,,2013-04-08 23:52:00,
2013-04-08 18:02:00,37.0,29.0,-100.00,NNE,15,3.0,8.0,71,-99.99,,,-99.99,,2013-04-09 00:02:00,
2013-04-08 18:12:00,36.0,30.0,-100.00,NNE,20,3.0,11.0,76,-99.99,,,-99.99,,2013-04-09 00:12:00,
2013-04-08 18:22:00,36.0,30.0,-100.00,NNE,25,3.0,10.0,80,-99.99,,,-99.99,,2013-04-09 00:22:00,
2013-04-08 18:32:00,34.0,31.0,-100.00,NNE,25,2.0,7.0,86,-99.99,,,-99.99,,2013-04-09 00:32:00,
2013-04-08 18:42:00,34.0,31.0,-100.00,North,10,3.0,9.0,90,-99.99,,,-99.99,,2013-04-09 00:42:00,
2013-04-08 18:52:00,33.0,31.0,-100.00,NE,50,3.0,9.0,93,-99.99,,,-99.99,,2013-04-09 00:52:00,
2013-04-08 19:02:00,32.0,31.0,-100.00,NE,45,6.0,12.0,94,-99.99,,,-99.99,,2013-04-09 01:02:00,
2013-04-08 19:12:00,31.0,30.0,-100.00,NNE,25,4.0,10.0,95,-99.99,,,-99.99,,2013-04-09 01:12:00,
2013-04-08 19:22:00,31.0,30.0,-100.00,NE,40,6.0,13.0,96,-99.99,,,-99.99,,2013-04-09 01:22:00,
2013-04-08 19:33:00,30.0,29.0,-100.00,NNE,30,5.0,9.0,97,-99.99,,,-99.99,,2013-04-09 01:33:00,
2013-04-08 19:42:00,30.0,29.0,-100.00,ENE,60,6.0,9.0,97,-99.99,,,-99.99,,2013-04-09 01:42:00,
2013-04-08 19:52:00,30.0,29.0,-100.00,NE,50,4.0,11.0,97,-99.99,,,-99.99,,2013-04-09 01:52:00,
2013-04-08 20:02:00,29.0,29.0,-100.00,North,5,1.0,7.0,97,-99.99,,,-99.99,,2013-04-09 02:02:00,
2013-04-08 20:12:00,29.0,29.0,-100.00,ENE,60,2.0,6.0,97,-99.99,,,-99.99,,2013-04-09 02:12:00,
2013-04-08 20:22:00,29.0,28.0,-100.00,ENE,60,3.0,6.0,97,-99.99,,,-99.99,,2013-04-09 02:22:00,
2013-04-08 20:32:00,29.0,28.0,-100.00,NE,55,4.0,7.0,97,-99.99,,,-99.99,,2013-04-09 02:32:00,
2013-04-08 20:42:00,29.0,28.0,-100.00,NE,35,3.0,7.0,97,-99.99,,,-99.99,,2013-04-09 02:42:00,
2013-04-08 20:52:00,28.0,28.0,-100.00,NNE,25,4.0,7.0,97,-99.99,,,-99.99,,2013-04-09 02:52:00,
2013-04-08 21:00:00,28.0,27.0,-100.00,North,5,4.0,8.0,97,-99.99,,,-99.99,,2013-04-09 03:00:00,
2013-04-08 21:02:00,28.0,28.0,-100.00,NE,45,3.0,10.0,97,-99.99,,,-99.99,,2013-04-09 03:02:00,
2013-04-08 21:12:00,28.0,27.0,-100.00,North,5,4.0,8.0,97,-99.99,,,-99.99,,2013-04-09 03:12:00,
2013-04-08 21:21:00,28.0,27.0,-100.00,North,5,4.0,8.0,97,-99.99,,,-99.99,,2013-04-09 03:21:00,
2013-04-08 21:33:00,28.0,27.0,-100.00,North,5,4.0,8.0,97,-99.99,,,-99.99,,2013-04-09 03:33:00,
2013-04-08 21:43:00,28.0,27.0,-100.00,North,5,4.0,8.0,97,-99.99,,,-99.99,,2013-04-09 03:43:00,
2013-04-08 21:52:00,28.0,27.0,-100.00,North,5,4.0,8.0,97,-99.99,,,-99.99,,2013-04-09 03:52:00,
2013-04-08 23:43:00,24.0,24.0,-100.00,SW,230,2.0,9.0,97,-99.99,,,-99.99,,2013-04-09 05:43:00,
2013-04-08 23:52:00,24.0,24.0,-100.00,SW,235,2.0,7.0,97,-99.99,,,-99.99,,2013-04-09 05:52:00,